Time;durP1;ratioP1;P1;durP2;ratioP2;P2;SDS_P1;SDS_P2;PMS_P1;PMS_P2;Temp;Humidity;BMP_temperature;BMP_pressure;BME280_temperature;BME280_humidity;BME280_pressure;Samples;Min_cycle;Max_cycle;Signal;HPM_P1;HPM_P2
2024/01/17 00:00:39;;;;;;;8.55;3.20;;;1.30;99.90;;;;;;5090992;28;20682;-74
2024/01/17 00:03:06;;;;;;;7.30;3.10;;;1.20;99.90;;;;;;5090955;28;20085;-78
2024/01/17 00:05:32;;;;;;;6.50;2.30;;;1.30;99.90;;;;;;5089921;28;20046;-80
2024/01/17 00:07:58;;;;;;;8.05;3.00;;;1.20;99.90;;;;;;5090933;28;20135;-82
2024/01/17 00:10:24;;;;;;;9.63;2.97;;;1.20;99.90;;;;;;5091557;28;20115;-85
2024/01/17 00:12:50;;;;;;;8.27;2.83;;;1.20;99.90;;;;;;5091407;28;20508;-78
2024/01/17 00:15:18;;;;;;;7.35;3.58;;;1.20;99.90;;;;;;5089763;28;20059;-73
2024/01/17 00:17:44;;;;;;;7.85;3.53;;;1.20;99.90;;;;;;5091087;28;20056;-74
2024/01/17 00:20:10;;;;;;;7.75;4.07;;;1.20;99.90;;;;;;5106093;28;20056;-77
2024/01/17 00:22:35;;;;;;;10.45;3.42;;;1.20;99.90;;;;;;5089435;28;20407;-73
2024/01/17 00:25:03;;;;;;;7.13;3.70;;;1.20;99.90;;;;;;5089757;28;20059;-74
2024/01/17 00:27:29;;;;;;;8.57;4.05;;;1.10;99.90;;;;;;5089379;28;20105;-79
2024/01/17 00:29:57;;;;;;;6.72;3.15;;;1.20;99.90;;;;;;5089816;28;20040;-74
2024/01/17 00:32:26;;;;;;;10.57;3.55;;;1.10;99.90;;;;;;5091315;28;20059;-76
2024/01/17 00:34:52;;;;;;;9.98;4.72;;;1.10;99.90;;;;;;5072902;28;20079;-75
2024/01/17 00:37:18;;;;;;;12.65;6.50;;;1.10;99.90;;;;;;5089491;28;20055;-77
2024/01/17 00:39:44;;;;;;;8.07;3.60;;;1.10;99.90;;;;;;5090418;28;20059;-74
2024/01/17 00:42:10;;;;;;;12.65;5.72;;;1.10;99.90;;;;;;5090661;28;20052;-72
2024/01/17 00:44:39;;;;;;;7.95;4.30;;;1.10;99.90;;;;;;5089553;28;20048;-81
2024/01/17 00:47:05;;;;;;;7.00;3.58;;;1.10;99.90;;;;;;5073460;28;20052;-85
2024/01/17 00:49:31;;;;;;;11.57;4.75;;;1.10;99.90;;;;;;5089211;28;20131;-77
2024/01/17 00:51:57;;;;;;;10.13;4.57;;;1.00;99.90;;;;;;5089233;28;20080;-80
2024/01/17 00:54:23;;;;;;;7.95;3.83;;;1.00;99.90;;;;;;5090855;28;20072;-74
2024/01/17 00:56:48;;;;;;;13.13;4.47;;;1.00;99.90;;;;;;5089194;28;20572;-78
2024/01/17 00:59:14;;;;;;;11.68;4.20;;;1.00;99.90;;;;;;5089344;28;20439;-76
2024/01/17 01:01:40;;;;;;;10.30;5.30;;;1.00;99.90;;;;;;5089202;28;20066;-75
2024/01/17 01:04:08;;;;;;;9.65;4.20;;;1.00;99.90;;;;;;5092307;28;20048;-75
2024/01/17 01:06:34;;;;;;;10.77;4.68;;;0.90;99.90;;;;;;5094379;28;20058;-76
2024/01/17 01:09:00;;;;;;;11.27;4.63;;;0.90;99.90;;;;;;5093904;28;20052;-82
2024/01/17 01:11:32;;;;;;;9.75;4.88;;;0.80;99.90;;;;;;5094315;28;20044;-82
2024/01/17 01:14:01;;;;;;;11.13;5.05;;;0.80;99.90;;;;;;5093856;28;20805;-73
2024/01/17 01:16:27;;;;;;;12.13;5.45;;;0.90;99.90;;;;;;5094344;28;20087;-76
2024/01/17 01:18:53;;;;;;;14.18;5.93;;;0.90;99.90;;;;;;5092528;28;20091;-76
2024/01/17 01:21:19;;;;;;;13.90;5.70;;;0.90;99.90;;;;;;5093803;28;20078;-84
2024/01/17 01:23:46;;;;;;;11.95;5.07;;;0.80;99.90;;;;;;5094011;28;20056;-74
2024/01/17 01:26:13;;;;;;;9.55;4.80;;;0.90;99.90;;;;;;5093877;28;20048;-75
2024/01/17 01:28:39;;;;;;;12.35;6.32;;;0.90;99.90;;;;;;5092193;28;20044;-79
2024/01/17 01:31:05;;;;;;;16.40;6.18;;;0.80;99.90;;;;;;5093776;28;20442;-80
2024/01/17 01:33:30;;;;;;;21.80;6.95;;;0.80;99.90;;;;;;5075313;28;20395;-82
2024/01/17 01:35:56;;;;;;;10.05;4.93;;;0.80;99.90;;;;;;5092694;28;20055;-80
2024/01/17 01:38:22;;;;;;;12.07;5.95;;;0.80;99.90;;;;;;5093727;28;20040;-86
2024/01/17 01:40:47;;;;;;;12.10;5.70;;;0.80;99.90;;;;;;5109658;28;20056;-79
2024/01/17 01:43:31;;;;;;;9.60;5.40;;;0.70;99.90;;;;;;5093796;28;20130;-84
2024/01/17 01:46:15;;;;;;;10.18;4.70;;;0.70;99.90;;;;;;5092352;28;20051;-74
2024/01/17 01:48:42;;;;;;;11.50;5.55;;;0.70;99.90;;;;;;5093132;28;20492;-85
2024/01/17 01:51:10;;;;;;;13.90;5.80;;;0.80;99.90;;;;;;5093280;28;20381;-75
2024/01/17 01:53:37;;;;;;;10.52;5.35;;;0.80;99.90;;;;;;5093644;28;20040;-76
2024/01/17 01:56:05;;;;;;;12.32;6.18;;;0.70;99.90;;;;;;5093919;28;20052;-81
2024/01/17 01:58:33;;;;;;;12.60;5.88;;;0.70;99.90;;;;;;5093949;28;20060;-75
2024/01/17 02:00:59;;;;;;;12.90;6.10;;;0.70;99.90;;;;;;5091916;28;20104;-77
2024/01/17 02:03:26;;;;;;;16.17;7.53;;;0.70;99.90;;;;;;5093019;28;20126;-79
2024/01/17 02:05:53;;;;;;;12.45;5.97;;;0.70;99.90;;;;;;5093176;28;20055;-77
2024/01/17 02:08:19;;;;;;;8.52;5.20;;;0.70;99.90;;;;;;5092408;28;20105;-80
2024/01/17 02:10:45;;;;;;;12.18;5.93;;;0.70;99.90;;;;;;5092850;28;20142;-77
2024/01/17 02:13:11;;;;;;;14.18;6.20;;;0.70;99.90;;;;;;5093146;28;20040;-85
2024/01/17 02:15:36;;;;;;;10.30;5.88;;;0.70;99.90;;;;;;5093773;28;20549;-85
2024/01/17 02:18:04;;;;;;;14.00;6.82;;;0.70;99.90;;;;;;5093736;28;20048;-75
2024/01/17 02:20:31;;;;;;;14.65;6.85;;;0.70;99.90;;;;;;5092908;28;20109;-82
2024/01/17 02:22:56;;;;;;;17.50;6.28;;;0.70;99.90;;;;;;5091424;28;20097;-79
2024/01/17 02:25:22;;;;;;;14.13;6.65;;;0.70;99.90;;;;;;5093709;28;20055;-80
2024/01/17 02:27:48;;;;;;;11.57;5.97;;;0.70;99.90;;;;;;5094123;28;20044;-80
2024/01/17 02:30:14;;;;;;;11.77;6.30;;;0.70;99.90;;;;;;5094057;28;20103;-78
2024/01/17 02:32:42;;;;;;;11.77;7.05;;;0.60;99.90;;;;;;5092527;28;20048;-75
2024/01/17 02:35:08;;;;;;;17.85;6.85;;;0.60;99.90;;;;;;5095206;28;20044;-86
2024/01/17 02:37:34;;;;;;;18.17;8.00;;;0.60;99.90;;;;;;5092595;28;20552;-79
2024/01/17 02:40:00;;;;;;;12.82;7.07;;;0.60;99.90;;;;;;5092954;28;20043;-84
2024/01/17 02:42:25;;;;;;;14.88;6.80;;;0.60;99.90;;;;;;5076358;28;20075;-79
2024/01/17 02:44:51;;;;;;;12.85;6.82;;;0.60;99.90;;;;;;5094288;28;20044;-73
2024/01/17 02:47:17;;;;;;;12.52;6.10;;;0.60;99.90;;;;;;5092571;28;20468;-80
2024/01/17 02:49:45;;;;;;;13.35;7.40;;;0.60;99.90;;;;;;5092679;28;20058;-86
2024/01/17 02:52:10;;;;;;;13.65;7.72;;;0.50;99.90;;;;;;5091559;28;20409;-85
2024/01/17 02:54:36;;;;;;;11.10;6.60;;;0.60;99.90;;;;;;5092473;28;20059;-82
2024/01/17 02:57:02;;;;;;;14.32;6.03;;;0.60;99.90;;;;;;5091362;28;20377;-81
2024/01/17 02:59:27;;;;;;;16.58;7.22;;;0.60;99.90;;;;;;5092061;28;20525;-84
2024/01/17 03:01:53;;;;;;;16.05;6.35;;;0.60;99.90;;;;;;5090436;28;20385;-80
2024/01/17 03:04:19;;;;;;;14.48;7.00;;;0.60;99.90;;;;;;5092221;28;20083;-82
2024/01/17 03:06:49;;;;;;;15.02;7.15;;;0.50;99.90;;;;;;5091672;28;20074;-81
2024/01/17 03:09:14;;;;;;;10.45;5.88;;;0.50;99.90;;;;;;5091619;28;20508;-81
2024/01/17 03:11:40;;;;;;;12.75;7.13;;;0.50;99.90;;;;;;5092111;28;20052;-84
2024/01/17 03:14:06;;;;;;;19.75;8.68;;;0.50;99.90;;;;;;5091436;28;20483;-81
2024/01/17 03:16:32;;;;;;;11.23;7.05;;;0.50;99.90;;;;;;5090272;28;20092;-82
2024/01/17 03:18:58;;;;;;;15.82;7.57;;;0.50;99.90;;;;;;5091781;28;20051;-84
2024/01/17 03:21:23;;;;;;;18.10;7.95;;;0.50;99.90;;;;;;5090054;28;20849;-84
2024/01/17 03:23:49;;;;;;;16.33;7.80;;;0.40;99.90;;;;;;5090492;28;20044;-83
2024/01/17 03:26:15;;;;;;;18.33;8.98;;;0.50;99.90;;;;;;5089658;28;20048;-81
2024/01/17 03:28:43;;;;;;;14.18;8.23;;;0.50;99.90;;;;;;5091517;28;20124;-83
2024/01/17 03:31:08;;;;;;;14.38;9.18;;;0.40;99.90;;;;;;5092040;28;20048;-80
2024/01/17 03:33:34;;;;;;;16.02;7.93;;;0.50;99.90;;;;;;5091610;28;20047;-81
2024/01/17 03:36:00;;;;;;;14.80;7.97;;;0.50;99.90;;;;;;5091771;28;20449;-75
2024/01/17 03:38:26;;;;;;;14.45;7.80;;;0.40;99.90;;;;;;5073099;28;20060;-77
2024/01/17 03:40:55;;;;;;;14.23;7.75;;;0.50;99.90;;;;;;5091194;28;20079;-82
2024/01/17 03:43:21;;;;;;;14.35;7.97;;;0.50;99.90;;;;;;5089717;28;20051;-75
2024/01/17 03:45:47;;;;;;;17.17;8.55;;;0.50;99.90;;;;;;5091414;28;20100;-83
2024/01/17 03:48:12;;;;;;;20.35;7.50;;;0.40;99.90;;;;;;5089677;28;20609;-82
2024/01/17 03:50:38;;;;;;;19.42;8.63;;;0.50;99.90;;;;;;5089713;28;20087;-80
2024/01/17 03:53:04;;;;;;;16.85;8.48;;;0.40;99.90;;;;;;5090003;28;20465;-84
2024/01/17 03:55:29;;;;;;;19.17;9.07;;;0.40;99.90;;;;;;5073080;28;20060;-80
2024/01/17 03:57:55;;;;;;;16.15;8.05;;;0.40;99.90;;;;;;5090820;28;20044;-80
2024/01/17 04:00:21;;;;;;;17.85;8.73;;;0.40;99.90;;;;;;5090835;28;20044;-81
2024/01/17 04:02:46;;;;;;;17.88;8.98;;;0.40;99.90;;;;;;5091166;28;20048;-82
2024/01/17 04:05:12;;;;;;;15.23;9.55;;;0.40;99.90;;;;;;5091115;28;20039;-81
2024/01/17 04:07:38;;;;;;;20.45;8.60;;;0.40;99.90;;;;;;5091313;28;20040;-81
2024/01/17 04:10:05;;;;;;;19.95;9.32;;;0.40;99.90;;;;;;5073020;28;20062;-76
2024/01/17 04:12:31;;;;;;;19.67;9.80;;;0.50;99.90;;;;;;5089324;28;20075;-78
2024/01/17 04:14:56;;;;;;;18.50;10.75;;;0.40;99.90;;;;;;5089747;28;20090;-75
2024/01/17 04:17:22;;;;;;;19.45;10.50;;;0.40;99.90;;;;;;5091022;28;20039;-85
2024/01/17 04:19:48;;;;;;;24.80;8.45;;;0.40;99.90;;;;;;5090898;28;20052;-84
2024/01/17 04:22:14;;;;;;;17.85;10.02;;;0.40;99.90;;;;;;5091145;28;20093;-76
2024/01/17 04:24:39;;;;;;;17.45;8.85;;;0.40;99.90;;;;;;5072818;28;20052;-83
2024/01/17 04:27:05;;;;;;;18.45;9.38;;;0.40;99.90;;;;;;5091562;28;20048;-78
2024/01/17 04:29:31;;;;;;;16.30;9.32;;;0.50;99.90;;;;;;5090851;28;20044;-77
2024/01/17 04:31:57;;;;;;;17.40;9.45;;;0.50;99.90;;;;;;5089632;28;20059;-77
2024/01/17 04:34:23;;;;;;;21.55;9.55;;;0.50;99.90;;;;;;5091416;28;20059;-83
2024/01/17 04:36:48;;;;;;;21.02;9.52;;;0.60;99.90;;;;;;5091049;28;20539;-80
2024/01/17 04:39:15;;;;;;;19.67;9.38;;;0.60;99.90;;;;;;5091154;28;20102;-82
2024/01/17 04:41:40;;;;;;;21.88;10.05;;;0.60;99.90;;;;;;5094624;28;20060;-75
2024/01/17 04:44:06;;;;;;;21.27;9.85;;;0.50;99.90;;;;;;5093141;28;20048;-82
2024/01/17 04:46:33;;;;;;;17.85;10.00;;;0.50;99.90;;;;;;5093614;28;20040;-80
2024/01/17 04:49:00;;;;;;;19.55;9.18;;;0.50;99.90;;;;;;5094516;28;20138;-79
2024/01/17 04:51:26;;;;;;;19.75;9.63;;;0.60;99.90;;;;;;5094250;28;20785;-83
2024/01/17 04:53:51;;;;;;;20.08;10.18;;;0.50;99.90;;;;;;5094411;28;20048;-80
2024/01/17 04:56:17;;;;;;;18.00;9.27;;;0.50;99.90;;;;;;5094598;28;20059;-74
2024/01/17 04:58:43;;;;;;;23.25;10.95;;;0.50;99.90;;;;;;5094250;28;20102;-76
2024/01/17 05:01:10;;;;;;;24.23;9.98;;;0.50;99.90;;;;;;5094221;28;20112;-82
2024/01/17 05:03:37;;;;;;;21.77;10.25;;;0.60;99.90;;;;;;5092559;28;20056;-78
2024/01/17 05:06:05;;;;;;;20.05;9.20;;;0.50;99.90;;;;;;5094263;28;20059;-84
2024/01/17 05:08:31;;;;;;;18.10;10.88;;;0.50;99.90;;;;;;5075682;28;20131;-78
2024/01/17 05:10:56;;;;;;;20.30;10.25;;;0.50;99.90;;;;;;5092655;28;20178;-77
2024/01/17 05:13:22;;;;;;;18.25;9.48;;;0.50;99.90;;;;;;5094142;28;20059;-77
2024/01/17 05:15:48;;;;;;;22.02;10.00;;;0.40;99.90;;;;;;5094039;28;20188;-85
2024/01/17 05:18:14;;;;;;;18.90;10.68;;;0.40;99.90;;;;;;5094148;28;20436;-81
2024/01/17 05:20:40;;;;;;;21.77;10.07;;;0.30;99.90;;;;;;5093460;28;20148;-85
2024/01/17 05:23:06;;;;;;;17.30;9.75;;;0.30;99.90;;;;;;5094088;28;20070;-79
2024/01/17 05:25:32;;;;;;;18.08;9.93;;;0.20;99.90;;;;;;5094280;28;20105;-85
2024/01/17 05:27:58;;;;;;;17.40;11.00;;;0.20;99.90;;;;;;5093664;28;20036;-82
2024/01/17 05:30:25;;;;;;;16.15;9.23;;;0.10;99.90;;;;;;5092583;28;20051;-84
2024/01/17 05:32:52;;;;;;;17.10;10.07;;;0.10;99.90;;;;;;5075583;28;20055;-77
2024/01/17 05:35:18;;;;;;;19.52;10.45;;;0.10;99.90;;;;;;5093881;28;20048;-81
2024/01/17 05:37:45;;;;;;;18.65;10.07;;;0.10;99.90;;;;;;5093518;28;20040;-77
2024/01/17 05:40:12;;;;;;;29.90;12.90;;;0.10;99.90;;;;;;5091744;28;20062;-83
2024/01/17 05:42:39;;;;;;;19.77;9.98;;;0.00;99.90;;;;;;5075209;28;20123;-83
2024/01/17 05:45:07;;;;;;;19.92;10.70;;;0.00;99.90;;;;;;5093428;28;20048;-85
2024/01/17 05:47:35;;;;;;;16.15;8.77;;;0.00;99.90;;;;;;5092059;28;20502;-78
2024/01/17 05:50:09;;;;;;;20.80;10.93;;;0.00;99.90;;;;;;5092850;28;20055;-77
2024/01/17 05:52:39;;;;;;;20.03;10.27;;;0.00;99.90;;;;;;5093376;28;20060;-84
2024/01/17 05:55:07;;;;;;;18.60;10.45;;;0.00;99.90;;;;;;5093166;28;20562;-80
2024/01/17 05:57:32;;;;;;;23.52;10.95;;;0.00;99.90;;;;;;5091996;28;20097;-78
2024/01/17 05:59:58;;;;;;;22.23;10.30;;;0.00;99.90;;;;;;5093013;28;20446;-83
2024/01/17 06:02:23;;;;;;;22.30;10.65;;;0.00;99.90;;;;;;5093161;28;20048;-78
2024/01/17 06:04:49;;;;;;;19.63;10.38;;;0.00;99.90;;;;;;5093143;28;20406;-86
2024/01/17 06:07:15;;;;;;;22.55;11.60;;;0.00;99.90;;;;;;5093126;28;20059;-80
2024/01/17 06:09:43;;;;;;;19.58;10.85;;;0.00;99.90;;;;;;5093062;28;20108;-84
2024/01/17 06:12:10;;;;;;;19.00;10.20;;;-0.10;99.90;;;;;;5093056;28;20353;-80
2024/01/17 06:14:35;;;;;;;23.25;10.93;;;-0.10;99.90;;;;;;5092806;28;20138;-83
2024/01/17 06:17:01;;;;;;;22.88;10.63;;;0.00;99.90;;;;;;5093157;28;20128;-85
2024/01/17 06:19:27;;;;;;;26.70;12.52;;;-0.10;99.90;;;;;;5092742;28;20584;-74
2024/01/17 06:21:52;;;;;;;16.83;9.93;;;-0.10;99.90;;;;;;5092817;28;20051;-83
2024/01/17 06:24:18;;;;;;;20.02;10.48;;;0.00;99.90;;;;;;5091352;28;20075;-85
2024/01/17 06:26:44;;;;;;;27.95;11.93;;;0.00;99.90;;;;;;5091796;28;20131;-78
2024/01/17 06:29:10;;;;;;;15.65;9.63;;;-0.10;99.90;;;;;;5108112;28;20502;-84
2024/01/17 06:31:36;;;;;;;19.20;10.80;;;-0.10;99.90;;;;;;5075013;28;20052;-76
2024/01/17 06:34:01;;;;;;;19.52;9.70;;;-0.10;99.90;;;;;;5092595;28;20052;-80
2024/01/17 06:36:27;;;;;;;18.50;11.35;;;-0.10;99.90;;;;;;5092622;28;20131;-82
2024/01/17 06:38:53;;;;;;;19.48;10.45;;;-0.20;99.90;;;;;;5091904;28;20051;-78
2024/01/17 06:41:18;;;;;;;18.65;11.18;;;-0.20;99.90;;;;;;5107758;28;20052;-78
2024/01/17 06:43:45;;;;;;;21.35;10.98;;;-0.20;99.90;;;;;;5092393;28;20574;-79
2024/01/17 06:46:11;;;;;;;22.95;10.70;;;-0.20;99.90;;;;;;5091955;28;20638;-73
2024/01/17 06:48:36;;;;;;;24.45;12.63;;;-0.30;99.90;;;;;;5090718;28;20090;-84
2024/01/17 06:51:03;;;;;;;21.65;11.27;;;-0.30;99.90;;;;;;5090937;28;20091;-75
2024/01/17 06:53:31;;;;;;;19.23;10.95;;;-0.30;99.90;;;;;;5092157;28;20407;-76
2024/01/17 06:55:56;;;;;;;23.83;11.10;;;-0.20;99.90;;;;;;5092239;28;20422;-85
2024/01/17 06:58:22;;;;;;;19.90;11.85;;;-0.20;99.90;;;;;;5092309;28;20151;-80
2024/01/17 07:00:48;;;;;;;19.17;10.60;;;-0.30;99.90;;;;;;5091317;28;20403;-81
2024/01/17 07:03:14;;;;;;;22.40;10.68;;;-0.20;99.90;;;;;;5091865;28;20103;-83
2024/01/17 07:05:40;;;;;;;24.65;11.95;;;-0.20;99.90;;;;;;5091919;28;20051;-82
2024/01/17 07:08:06;;;;;;;19.90;10.82;;;-0.20;99.90;;;;;;5073707;28;20059;-75
2024/01/17 07:10:34;;;;;;;26.85;12.00;;;-0.30;99.90;;;;;;5090540;28;20412;-75
2024/01/17 07:13:00;;;;;;;20.35;11.60;;;-0.30;99.90;;;;;;5092217;28;20505;-83
2024/01/17 07:15:25;;;;;;;22.70;10.75;;;-0.30;99.90;;;;;;5091781;28;20123;-76
2024/01/17 07:17:51;;;;;;;24.05;11.93;;;-0.30;99.90;;;;;;5106841;28;20055;-83
2024/01/17 07:20:17;;;;;;;25.40;12.48;;;-0.30;99.90;;;;;;5056914;28;20407;-81
2024/01/17 07:22:44;;;;;;;25.55;11.35;;;-0.30;99.90;;;;;;5107247;28;20048;-76
2024/01/17 07:25:14;;;;;;;22.65;11.00;;;-0.40;99.90;;;;;;5090127;28;20044;-76
2024/01/17 07:27:41;;;;;;;20.58;10.63;;;-0.40;99.90;;;;;;5091526;28;20052;-84
2024/01/17 07:30:07;;;;;;;22.05;11.30;;;-0.50;99.90;;;;;;5089893;28;20056;-81
2024/01/17 07:32:33;;;;;;;24.23;11.90;;;-0.50;99.90;;;;;;5091518;28;20074;-84
2024/01/17 07:34:59;;;;;;;20.17;11.23;;;-0.50;99.90;;;;;;5091534;28;20213;-80
2024/01/17 07:37:25;;;;;;;21.73;11.48;;;-0.50;99.90;;;;;;5090138;28;20127;-84
2024/01/17 07:39:50;;;;;;;23.60;10.38;;;-0.50;99.90;;;;;;5090847;28;20056;-84
2024/01/17 07:42:18;;;;;;;22.75;11.48;;;-0.60;99.90;;;;;;5090052;28;20047;-74
2024/01/17 07:44:44;;;;;;;19.85;11.25;;;-0.60;99.90;;;;;;5091015;28;20534;-84
2024/01/17 07:47:10;;;;;;;35.35;13.05;;;-0.60;99.90;;;;;;5091260;28;20048;-77
2024/01/17 07:49:37;;;;;;;23.58;12.23;;;-0.70;99.90;;;;;;5091394;28;20051;-80
2024/01/17 07:52:04;;;;;;;22.77;11.90;;;-0.60;99.90;;;;;;5091229;28;20059;-81
2024/01/17 07:54:31;;;;;;;23.50;11.98;;;-0.60;99.90;;;;;;5106706;28;20051;-84
2024/01/17 07:56:56;;;;;;;22.27;11.77;;;-0.60;99.90;;;;;;5090265;28;20055;-76
2024/01/17 07:59:22;;;;;;;25.98;12.45;;;-0.60;99.90;;;;;;5091296;28;20491;-84
2024/01/17 08:01:49;;;;;;;21.48;12.40;;;-0.60;99.90;;;;;;5090448;28;20083;-73
2024/01/17 08:04:16;;;;;;;20.15;11.05;;;-0.50;99.90;;;;;;5107230;28;20103;-81
2024/01/17 08:06:43;;;;;;;22.63;11.63;;;-0.50;99.90;;;;;;5090303;28;20487;-80
2024/01/17 08:09:20;;;;;;;22.95;10.50;;;-0.50;99.90;;;;;;5091783;28;20123;-82
2024/01/17 08:11:57;;;;;;;21.65;10.52;;;-0.50;99.90;;;;;;5090572;28;20047;-74
2024/01/17 08:14:23;;;;;;;19.27;10.23;;;-0.50;99.90;;;;;;5077598;28;20087;-71
2024/01/17 08:16:50;;;;;;;22.75;11.45;;;-0.50;99.90;;;;;;5095094;28;20386;-72
2024/01/17 08:19:17;;;;;;;17.77;10.27;;;-0.50;99.90;;;;;;5094975;28;20044;-72
2024/01/17 08:21:43;;;;;;;19.38;10.93;;;-0.50;99.90;;;;;;5095235;28;20044;-77
2024/01/17 08:24:09;;;;;;;22.23;10.00;;;-0.50;99.90;;;;;;5093728;28;20079;-76
2024/01/17 08:26:35;;;;;;;22.15;10.73;;;-0.50;99.90;;;;;;5093613;28;20056;-75
2024/01/17 08:29:00;;;;;;;18.15;9.48;;;-0.40;99.90;;;;;;5093757;28;20047;-81
2024/01/17 08:31:27;;;;;;;24.38;11.07;;;-0.40;99.90;;;;;;5094612;28;20102;-78
2024/01/17 08:33:53;;;;;;;18.25;10.45;;;-0.40;99.90;;;;;;5094770;28;20403;-79
2024/01/17 08:36:18;;;;;;;18.35;10.27;;;-0.30;99.90;;;;;;5094587;28;20526;-73
2024/01/17 08:38:44;;;;;;;19.73;10.73;;;-0.30;99.90;;;;;;5094304;28;20056;-83
2024/01/17 08:41:10;;;;;;;27.65;11.30;;;-0.30;99.90;;;;;;5094515;28;20056;-77
2024/01/17 08:43:36;;;;;;;18.20;9.70;;;-0.30;99.90;;;;;;5094980;28;20373;-78
2024/01/17 08:46:02;;;;;;;20.30;10.40;;;-0.30;99.90;;;;;;5094597;28;20532;-73
2024/01/17 08:48:28;;;;;;;21.85;10.70;;;-0.20;99.90;;;;;;5094337;28;20044;-82
2024/01/17 08:50:55;;;;;;;16.48;9.93;;;-0.20;99.90;;;;;;5094527;28;20135;-82
2024/01/17 08:53:21;;;;;;;22.02;10.95;;;-0.20;99.90;;;;;;5094315;28;20074;-80
2024/01/17 08:55:47;;;;;;;21.88;11.30;;;-0.20;99.90;;;;;;5093005;28;20484;-84
2024/01/17 08:58:13;;;;;;;22.15;9.88;;;-0.20;99.90;;;;;;5093194;28;20259;-83
2024/01/17 09:00:39;;;;;;;19.73;10.05;;;-0.20;99.90;;;;;;5094591;28;20048;-84
2024/01/17 09:03:04;;;;;;;17.63;9.48;;;-0.20;99.90;;;;;;5092880;28;20526;-82
2024/01/17 09:05:30;;;;;;;22.52;10.07;;;-0.10;99.90;;;;;;5094545;28;20093;-80
2024/01/17 09:07:57;;;;;;;16.00;9.57;;;-0.10;99.90;;;;;;5093814;28;20058;-81
2024/01/17 09:10:23;;;;;;;17.05;9.70;;;-0.10;99.90;;;;;;5094238;28;20438;-79
2024/01/17 09:12:50;;;;;;;21.75;9.70;;;-0.10;99.90;;;;;;5093973;28;20040;-83
2024/01/17 09:15:16;;;;;;;15.93;9.52;;;-0.10;99.90;;;;;;5094001;28;20057;-78
2024/01/17 09:17:42;;;;;;;18.70;9.60;;;0.00;99.90;;;;;;5094182;28;20454;-76
2024/01/17 09:20:08;;;;;;;20.27;10.65;;;0.00;99.90;;;;;;5092545;28;20130;-76
2024/01/17 09:22:34;;;;;;;21.60;9.27;;;0.00;99.90;;;;;;5109714;28;20052;-85
2024/01/17 09:25:00;;;;;;;20.83;9.35;;;0.00;99.90;;;;;;5091712;28;20059;-75
2024/01/17 09:27:27;;;;;;;17.15;10.15;;;0.00;99.90;;;;;;5094164;28;20054;-79
2024/01/17 09:29:53;;;;;;;16.65;9.43;;;0.00;99.90;;;;;;5093643;28;20098;-78
2024/01/17 09:32:18;;;;;;;20.10;9.35;;;0.10;99.90;;;;;;5093579;28;20519;-83
2024/01/17 09:34:47;;;;;;;19.65;10.55;;;0.00;99.90;;;;;;5093604;28;20457;-81
2024/01/17 09:37:14;;;;;;;18.88;9.75;;;0.00;99.90;;;;;;5093528;28;20117;-80
2024/01/17 09:39:40;;;;;;;18.70;9.52;;;0.10;99.90;;;;;;5093088;28;20059;-85
2024/01/17 09:42:06;;;;;;;17.02;10.00;;;0.10;99.90;;;;;;5091958;28;20048;-81
2024/01/17 09:44:33;;;;;;;20.10;9.93;;;0.10;99.90;;;;;;5109115;28;20105;-79
2024/01/17 09:47:00;;;;;;;17.42;9.27;;;0.00;99.90;;;;;;5091938;28;20051;-79
2024/01/17 09:49:29;;;;;;;17.58;9.73;;;0.10;99.90;;;;;;5093183;28;20104;-85
2024/01/17 09:51:55;;;;;;;20.35;11.00;;;0.10;99.90;;;;;;5092109;28;20052;-74
2024/01/17 09:54:25;;;;;;;16.50;8.65;;;0.10;99.90;;;;;;5093110;28;20369;-78
2024/01/17 09:56:56;;;;;;;19.77;9.95;;;0.10;99.90;;;;;;5093306;28;20086;-76
2024/01/17 09:59:30;;;;;;;16.30;9.27;;;0.10;99.90;;;;;;5093275;28;20048;-84
2024/01/17 10:01:56;;;;;;;18.95;9.25;;;0.10;99.90;;;;;;5093152;28;20056;-74
2024/01/17 10:04:24;;;;;;;19.50;10.77;;;0.10;99.90;;;;;;5093148;28;20048;-83
2024/01/17 10:06:50;;;;;;;23.58;9.63;;;0.10;99.90;;;;;;5091795;28;20051;-80
2024/01/17 10:09:16;;;;;;;16.27;9.80;;;0.10;99.90;;;;;;5092755;28;20044;-80
2024/01/17 10:11:42;;;;;;;24.33;11.60;;;0.10;99.90;;;;;;5093066;28;20096;-80
2024/01/17 10:14:07;;;;;;;25.88;11.45;;;0.10;99.90;;;;;;5092849;28;20484;-81
2024/01/17 10:16:34;;;;;;;19.23;9.93;;;0.10;99.90;;;;;;5092730;28;20052;-76
2024/01/17 10:19:04;;;;;;;20.05;9.85;;;0.00;99.90;;;;;;5092607;28;20396;-82
2024/01/17 10:21:33;;;;;;;18.65;9.93;;;0.00;99.90;;;;;;5092774;28;20404;-82
2024/01/17 10:23:59;;;;;;;17.83;9.88;;;0.00;99.90;;;;;;5091145;28;20104;-79
2024/01/17 10:26:25;;;;;;;20.35;10.13;;;0.00;99.90;;;;;;5091162;28;20139;-80
2024/01/17 10:28:54;;;;;;;18.65;9.82;;;0.00;99.90;;;;;;5092576;28;20032;-85
2024/01/17 10:31:20;;;;;;;23.27;12.05;;;0.00;99.90;;;;;;5092651;28;20404;-76
2024/01/17 10:33:48;;;;;;;17.92;9.48;;;0.00;99.90;;;;;;5092328;28;20531;-80
2024/01/17 10:36:14;;;;;;;20.23;10.88;;;0.00;99.90;;;;;;5092376;28;20178;-84
2024/01/17 10:38:40;;;;;;;19.65;10.05;;;0.00;99.90;;;;;;5092104;28;20131;-75
2024/01/17 10:41:07;;;;;;;22.92;10.77;;;0.00;99.90;;;;;;5092523;28;20047;-81
2024/01/17 10:43:50;;;;;;;19.23;10.38;;;0.00;99.90;;;;;;5092752;28;20056;-76
2024/01/17 10:46:16;;;;;;;19.33;10.40;;;0.00;99.90;;;;;;5091007;28;20044;-83
2024/01/17 10:48:42;;;;;;;21.02;11.88;;;0.00;99.90;;;;;;5092219;28;20047;-77
2024/01/17 10:51:11;;;;;;;23.33;11.23;;;0.00;99.90;;;;;;5092131;28;20051;-78
2024/01/17 10:53:38;;;;;;;19.25;9.73;;;0.00;99.90;;;;;;5091070;28;20063;-76
2024/01/17 10:56:04;;;;;;;18.75;10.20;;;-0.10;99.90;;;;;;5091736;28;20058;-77
2024/01/17 10:58:35;;;;;;;21.08;11.23;;;0.00;99.90;;;;;;5092093;28;20055;-73
2024/01/17 11:01:05;;;;;;;21.48;10.73;;;-0.10;99.90;;;;;;5090637;28;20044;-79
2024/01/17 11:03:36;;;;;;;21.95;11.52;;;-0.10;99.90;;;;;;5091864;28;20170;-84
2024/01/17 11:06:04;;;;;;;19.90;12.75;;;0.00;99.90;;;;;;5091818;28;20067;-81
2024/01/17 11:08:31;;;;;;;16.83;9.80;;;-0.10;99.90;;;;;;5091659;28;20496;-79
2024/01/17 11:10:58;;;;;;;18.98;11.63;;;0.00;99.90;;;;;;5091945;28;20055;-77
2024/01/17 11:13:25;;;;;;;21.02;11.95;;;0.00;99.90;;;;;;5092053;28;20040;-76
2024/01/17 11:15:52;;;;;;;22.38;11.75;;;0.00;99.90;;;;;;5092179;28;20052;-73
2024/01/17 11:18:20;;;;;;;24.73;13.05;;;0.00;99.90;;;;;;5091904;28;20047;-72
2024/01/17 11:20:46;;;;;;;22.38;11.80;;;0.10;99.90;;;;;;5091936;28;20052;-76
2024/01/17 11:23:32;;;;;;;20.80;11.32;;;0.10;99.90;;;;;;5092053;28;20084;-75
2024/01/17 11:26:06;;;;;;;18.85;10.98;;;0.10;99.90;;;;;;5090841;28;20117;-82
2024/01/17 11:28:55;;;;;;;19.25;11.90;;;0.10;99.90;;;;;;5091519;28;20131;-80
2024/01/17 11:31:29;;;;;;;22.48;12.10;;;0.20;99.90;;;;;;5090314;28;20087;-78
2024/01/17 11:33:57;;;;;;;20.45;11.43;;;0.20;99.90;;;;;;5073494;28;20048;-78
2024/01/17 11:36:45;;;;;;;27.38;12.00;;;0.30;99.90;;;;;;5091774;28;20063;-79
2024/01/17 11:39:18;;;;;;;19.52;11.63;;;0.30;99.90;;;;;;5091387;28;20048;-84
2024/01/17 11:41:45;;;;;;;18.23;10.55;;;0.30;99.90;;;;;;5091465;28;20519;-83
2024/01/17 11:44:12;;;;;;;18.52;11.23;;;0.40;99.90;;;;;;5091916;28;20135;-84
2024/01/17 11:46:38;;;;;;;19.42;11.63;;;0.40;99.90;;;;;;5091703;28;20388;-84
2024/01/17 11:49:05;;;;;;;16.45;10.38;;;0.50;99.90;;;;;;5091354;28;20040;-77
2024/01/17 11:51:34;;;;;;;20.52;10.65;;;0.50;99.90;;;;;;5091893;28;20052;-78
2024/01/17 11:54:03;;;;;;;20.95;9.27;;;0.60;99.90;;;;;;5090199;28;20083;-81
2024/01/17 11:56:29;;;;;;;18.63;10.48;;;0.70;99.90;;;;;;5091338;28;20048;-74
2024/01/17 11:59:12;;;;;;;23.75;10.80;;;0.70;99.90;;;;;;5091362;28;20048;-77
2024/01/17 12:01:44;;;;;;;20.00;11.43;;;0.70;99.90;;;;;;5090107;28;20119;-80
2024/01/17 12:04:15;;;;;;;18.60;10.52;;;0.80;99.90;;;;;;5091136;28;20131;-79
2024/01/17 12:06:46;;;;;;;19.08;10.55;;;0.80;99.90;;;;;;5091158;28;20055;-80
2024/01/17 12:09:18;;;;;;;21.35;11.35;;;0.80;99.90;;;;;;5091550;28;20044;-82
2024/01/17 12:11:47;;;;;;;21.80;11.55;;;0.80;99.90;;;;;;5089922;28;20155;-80
2024/01/17 12:14:16;;;;;;;22.27;11.80;;;0.80;99.90;;;;;;5091223;28;20063;-73
2024/01/17 12:16:42;;;;;;;18.48;10.52;;;0.90;99.90;;;;;;5090951;28;20044;-74
2024/01/17 12:19:12;;;;;;;21.73;10.70;;;0.90;99.90;;;;;;5091486;28;20048;-79
2024/01/17 12:21:38;;;;;;;21.30;11.45;;;0.90;99.90;;;;;;5090939;28;20059;-84
2024/01/17 12:24:08;;;;;;;22.02;11.63;;;0.90;99.90;;;;;;5090928;28;20044;-79
2024/01/17 12:26:34;;;;;;;19.17;11.25;;;0.90;99.90;;;;;;5091445;28;20108;-84
2024/01/17 12:29:10;;;;;;;19.08;10.63;;;0.90;99.90;;;;;;5106558;28;20095;-77
2024/01/17 12:31:36;;;;;;;20.30;10.55;;;0.90;99.90;;;;;;5072648;28;20321;-82
2024/01/17 12:34:04;;;;;;;28.00;10.93;;;0.90;99.90;;;;;;5090528;28;20048;-77
2024/01/17 12:36:35;;;;;;;19.00;10.73;;;0.90;99.90;;;;;;5091078;28;20052;-81
2024/01/17 12:39:13;;;;;;;19.33;10.20;;;0.90;99.90;;;;;;5089077;28;20140;-80